sensor_id;sensor_type;location;lat;lon;timestamp;temperature;humidity
70762;DHT22;58360;0.000;0.000;2023-06-26T00:01:17;25.70;61.40
70762;DHT22;58360;0.000;0.000;2023-06-26T00:03:46;25.70;61.30
70762;DHT22;58360;0.000;0.000;2023-06-26T00:06:12;25.50;61.70
70762;DHT22;58360;0.000;0.000;2023-06-26T00:08:37;25.60;61.40
70762;DHT22;58360;0.000;0.000;2023-06-26T00:11:04;25.50;61.70
70762;DHT22;58360;0.000;0.000;2023-06-26T00:13:30;25.60;59.50
70762;DHT22;58360;0.000;0.000;2023-06-26T00:15:56;25.40;60.30
70762;DHT22;58360;0.000;0.000;2023-06-26T00:18:21;25.20;61.00
70762;DHT22;58360;0.000;0.000;2023-06-26T00:20:48;25.00;61.40
70762;DHT22;58360;0.000;0.000;2023-06-26T00:23:16;24.90;61.40
70762;DHT22;58360;0.000;0.000;2023-06-26T00:25:43;24.90;61.60
70762;DHT22;58360;0.000;0.000;2023-06-26T00:28:09;24.80;61.10
70762;DHT22;58360;0.000;0.000;2023-06-26T00:30:34;24.80;61.60
70762;DHT22;58360;0.000;0.000;2023-06-26T00:33:00;24.90;61.40
70762;DHT22;58360;0.000;0.000;2023-06-26T00:35:26;24.80;61.50
70762;DHT22;58360;0.000;0.000;2023-06-26T00:37:52;24.90;61.70
70762;DHT22;58360;0.000;0.000;2023-06-26T00:40:17;24.60;62.20
70762;DHT22;58360;0.000;0.000;2023-06-26T00:42:43;24.60;62.70
70762;DHT22;58360;0.000;0.000;2023-06-26T00:45:09;24.60;62.40
70762;DHT22;58360;0.000;0.000;2023-06-26T00:47:35;24.70;62.20
70762;DHT22;58360;0.000;0.000;2023-06-26T00:50:01;24.70;61.80
70762;DHT22;58360;0.000;0.000;2023-06-26T00:52:27;24.50;61.60
70762;DHT22;58360;0.000;0.000;2023-06-26T00:54:52;24.30;61.10
70762;DHT22;58360;0.000;0.000;2023-06-26T00:57:19;24.20;61.70
70762;DHT22;58360;0.000;0.000;2023-06-26T00:59:44;24.20;61.70
70762;DHT22;58360;0.000;0.000;2023-06-26T01:02:10;24.20;61.10
70762;DHT22;58360;0.000;0.000;2023-06-26T01:04:36;24.20;60.80
70762;DHT22;58360;0.000;0.000;2023-06-26T01:07:02;24.00;61.10
70762;DHT22;58360;0.000;0.000;2023-06-26T01:09:29;23.90;61.60
70762;DHT22;58360;0.000;0.000;2023-06-26T01:11:56;23.90;61.80
70762;DHT22;58360;0.000;0.000;2023-06-26T01:14:22;23.90;62.30
70762;DHT22;58360;0.000;0.000;2023-06-26T01:16:49;24.00;61.90
70762;DHT22;58360;0.000;0.000;2023-06-26T01:19:26;24.00;61.90
70762;DHT22;58360;0.000;0.000;2023-06-26T01:22:07;23.90;62.30
70762;DHT22;58360;0.000;0.000;2023-06-26T01:24:45;24.00;62.10
70762;DHT22;58360;0.000;0.000;2023-06-26T01:27:15;24.00;62.40
70762;DHT22;58360;0.000;0.000;2023-06-26T01:29:44;23.80;63.00
70762;DHT22;58360;0.000;0.000;2023-06-26T01:32:11;23.70;63.60
70762;DHT22;58360;0.000;0.000;2023-06-26T01:34:36;23.80;63.60
70762;DHT22;58360;0.000;0.000;2023-06-26T01:37:02;23.70;64.00
70762;DHT22;58360;0.000;0.000;2023-06-26T01:39:28;23.70;64.80
70762;DHT22;58360;0.000;0.000;2023-06-26T01:41:54;23.60;65.00
70762;DHT22;58360;0.000;0.000;2023-06-26T01:44:27;23.50;65.10
70762;DHT22;58360;0.000;0.000;2023-06-26T01:47:05;23.50;64.90
70762;DHT22;58360;0.000;0.000;2023-06-26T01:52:28;23.20;66.30
70762;DHT22;58360;0.000;0.000;2023-06-26T01:57:38;23.10;66.80
70762;DHT22;58360;0.000;0.000;2023-06-26T02:00:05;23.10;67.30
70762;DHT22;58360;0.000;0.000;2023-06-26T02:02:35;23.10;68.00
70762;DHT22;58360;0.000;0.000;2023-06-26T02:05:01;23.20;67.30
70762;DHT22;58360;0.000;0.000;2023-06-26T02:07:27;23.10;67.70
70762;DHT22;58360;0.000;0.000;2023-06-26T02:09:56;23.10;68.00
70762;DHT22;58360;0.000;0.000;2023-06-26T02:12:22;23.10;68.70
70762;DHT22;58360;0.000;0.000;2023-06-26T02:14:47;23.10;68.60
70762;DHT22;58360;0.000;0.000;2023-06-26T02:17:13;23.00;69.00
70762;DHT22;58360;0.000;0.000;2023-06-26T02:19:38;23.10;68.90
70762;DHT22;58360;0.000;0.000;2023-06-26T02:22:10;23.10;68.90
70762;DHT22;58360;0.000;0.000;2023-06-26T02:24:36;23.10;69.60
70762;DHT22;58360;0.000;0.000;2023-06-26T02:27:02;23.00;69.70
70762;DHT22;58360;0.000;0.000;2023-06-26T02:29:27;23.10;69.50
70762;DHT22;58360;0.000;0.000;2023-06-26T02:31:53;23.00;69.80
70762;DHT22;58360;0.000;0.000;2023-06-26T02:34:19;22.90;70.70
70762;DHT22;58360;0.000;0.000;2023-06-26T02:36:44;22.90;70.60
70762;DHT22;58360;0.000;0.000;2023-06-26T02:39:13;22.90;71.00
70762;DHT22;58360;0.000;0.000;2023-06-26T02:41:40;22.70;72.00
70762;DHT22;58360;0.000;0.000;2023-06-26T02:44:05;22.60;72.10
70762;DHT22;58360;0.000;0.000;2023-06-26T02:46:32;22.70;72.30
70762;DHT22;58360;0.000;0.000;2023-06-26T02:48:59;22.70;72.70
70762;DHT22;58360;0.000;0.000;2023-06-26T02:51:24;22.60;73.60
70762;DHT22;58360;0.000;0.000;2023-06-26T02:53:50;22.50;73.70
70762;DHT22;58360;0.000;0.000;2023-06-26T02:56:16;22.50;73.80
70762;DHT22;58360;0.000;0.000;2023-06-26T02:58:41;22.70;73.30
70762;DHT22;58360;0.000;0.000;2023-06-26T03:01:07;22.60;73.60
70762;DHT22;58360;0.000;0.000;2023-06-26T03:03:33;22.70;73.80
70762;DHT22;58360;0.000;0.000;2023-06-26T03:06:06;22.60;74.00
70762;DHT22;58360;0.000;0.000;2023-06-26T03:08:32;22.70;74.30
70762;DHT22;58360;0.000;0.000;2023-06-26T03:10:58;22.70;74.20
70762;DHT22;58360;0.000;0.000;2023-06-26T03:13:24;22.70;73.90
70762;DHT22;58360;0.000;0.000;2023-06-26T03:15:49;22.60;74.20
70762;DHT22;58360;0.000;0.000;2023-06-26T03:18:15;22.50;75.60
70762;DHT22;58360;0.000;0.000;2023-06-26T03:20:40;22.20;76.70
70762;DHT22;58360;0.000;0.000;2023-06-26T03:23:06;22.00;77.80
70762;DHT22;58360;0.000;0.000;2023-06-26T03:25:32;22.00;78.00
70762;DHT22;58360;0.000;0.000;2023-06-26T03:27:57;22.00;77.80
70762;DHT22;58360;0.000;0.000;2023-06-26T03:30:23;22.00;78.80
70762;DHT22;58360;0.000;0.000;2023-06-26T03:32:49;21.90;79.10
70762;DHT22;58360;0.000;0.000;2023-06-26T03:35:14;21.90;79.80
70762;DHT22;58360;0.000;0.000;2023-06-26T03:37:40;21.70;80.50
70762;DHT22;58360;0.000;0.000;2023-06-26T03:40:06;21.80;80.60
70762;DHT22;58360;0.000;0.000;2023-06-26T03:42:32;21.80;81.20
70762;DHT22;58360;0.000;0.000;2023-06-26T03:44:58;21.50;82.70
70762;DHT22;58360;0.000;0.000;2023-06-26T03:47:24;21.50;82.80
70762;DHT22;58360;0.000;0.000;2023-06-26T03:49:49;21.50;82.50
70762;DHT22;58360;0.000;0.000;2023-06-26T03:52:15;21.50;83.10
70762;DHT22;58360;0.000;0.000;2023-06-26T03:54:40;21.50;83.70
70762;DHT22;58360;0.000;0.000;2023-06-26T03:57:07;21.40;83.20
70762;DHT22;58360;0.000;0.000;2023-06-26T03:59:32;21.50;83.30
70762;DHT22;58360;0.000;0.000;2023-06-26T04:01:58;21.50;84.00
70762;DHT22;58360;0.000;0.000;2023-06-26T04:04:24;21.20;85.00
70762;DHT22;58360;0.000;0.000;2023-06-26T04:06:52;21.20;85.00
70762;DHT22;58360;0.000;0.000;2023-06-26T04:09:18;21.30;85.00
70762;DHT22;58360;0.000;0.000;2023-06-26T04:11:44;21.20;85.00
70762;DHT22;58360;0.000;0.000;2023-06-26T04:14:10;21.40;84.00
70762;DHT22;58360;0.000;0.000;2023-06-26T04:16:36;21.40;83.80
70762;DHT22;58360;0.000;0.000;2023-06-26T04:19:01;21.60;83.20
70762;DHT22;58360;0.000;0.000;2023-06-26T04:21:28;21.60;83.00
70762;DHT22;58360;0.000;0.000;2023-06-26T04:23:53;21.50;83.00
70762;DHT22;58360;0.000;0.000;2023-06-26T04:26:22;21.60;83.60
70762;DHT22;58360;0.000;0.000;2023-06-26T04:28:48;21.80;82.50
70762;DHT22;58360;0.000;0.000;2023-06-26T04:31:16;21.80;81.90
70762;DHT22;58360;0.000;0.000;2023-06-26T04:33:42;21.90;81.40
70762;DHT22;58360;0.000;0.000;2023-06-26T04:36:07;21.80;82.60
70762;DHT22;58360;0.000;0.000;2023-06-26T04:38:33;21.70;82.80
70762;DHT22;58360;0.000;0.000;2023-06-26T04:41:00;21.70;83.60
70762;DHT22;58360;0.000;0.000;2023-06-26T04:43:26;21.70;82.80
70762;DHT22;58360;0.000;0.000;2023-06-26T04:45:51;21.70;83.40
70762;DHT22;58360;0.000;0.000;2023-06-26T04:48:20;21.80;81.70
70762;DHT22;58360;0.000;0.000;2023-06-26T04:50:46;21.70;83.00
70762;DHT22;58360;0.000;0.000;2023-06-26T04:53:22;21.70;82.10
70762;DHT22;58360;0.000;0.000;2023-06-26T04:55:49;21.70;81.90
70762;DHT22;58360;0.000;0.000;2023-06-26T04:58:15;21.80;81.60
70762;DHT22;58360;0.000;0.000;2023-06-26T05:00:40;21.80;81.70
70762;DHT22;58360;0.000;0.000;2023-06-26T05:03:09;21.60;82.60
70762;DHT22;58360;0.000;0.000;2023-06-26T05:05:35;21.60;82.90
70762;DHT22;58360;0.000;0.000;2023-06-26T05:08:13;21.60;81.60
70762;DHT22;58360;0.000;0.000;2023-06-26T05:10:39;21.50;82.60
70762;DHT22;58360;0.000;0.000;2023-06-26T05:13:05;21.70;82.00
70762;DHT22;58360;0.000;0.000;2023-06-26T05:15:31;21.90;80.40
70762;DHT22;58360;0.000;0.000;2023-06-26T05:17:56;22.10;79.60
70762;DHT22;58360;0.000;0.000;2023-06-26T05:20:22;22.20;79.70
70762;DHT22;58360;0.000;0.000;2023-06-26T05:22:48;22.30;78.70
70762;DHT22;58360;0.000;0.000;2023-06-26T05:25:14;22.40;79.10
70762;DHT22;58360;0.000;0.000;2023-06-26T05:27:41;22.40;77.70
70762;DHT22;58360;0.000;0.000;2023-06-26T05:30:10;22.40;78.30
70762;DHT22;58360;0.000;0.000;2023-06-26T05:32:38;22.50;77.90
70762;DHT22;58360;0.000;0.000;2023-06-26T05:35:05;22.60;76.80
70762;DHT22;58360;0.000;0.000;2023-06-26T05:37:34;22.60;77.10
70762;DHT22;58360;0.000;0.000;2023-06-26T05:40:00;22.40;77.60
70762;DHT22;58360;0.000;0.000;2023-06-26T05:42:29;22.40;77.20
70762;DHT22;58360;0.000;0.000;2023-06-26T05:44:55;22.40;76.80
70762;DHT22;58360;0.000;0.000;2023-06-26T05:47:21;22.40;77.80
70762;DHT22;58360;0.000;0.000;2023-06-26T05:49:47;22.40;77.70
70762;DHT22;58360;0.000;0.000;2023-06-26T05:52:13;22.30;77.60
70762;DHT22;58360;0.000;0.000;2023-06-26T05:54:39;22.20;78.20
70762;DHT22;58360;0.000;0.000;2023-06-26T05:57:06;22.40;77.20
70762;DHT22;58360;0.000;0.000;2023-06-26T05:59:32;22.50;76.80
70762;DHT22;58360;0.000;0.000;2023-06-26T06:01:58;22.50;77.20
70762;DHT22;58360;0.000;0.000;2023-06-26T06:04:24;22.60;77.20
70762;DHT22;58360;0.000;0.000;2023-06-26T06:06:49;22.70;75.60
70762;DHT22;58360;0.000;0.000;2023-06-26T06:09:15;22.60;75.30
70762;DHT22;58360;0.000;0.000;2023-06-26T06:11:41;22.50;77.10
70762;DHT22;58360;0.000;0.000;2023-06-26T06:14:07;22.50;76.50
70762;DHT22;58360;0.000;0.000;2023-06-26T06:16:32;22.50;76.40
70762;DHT22;58360;0.000;0.000;2023-06-26T06:18:58;22.60;75.20
70762;DHT22;58360;0.000;0.000;2023-06-26T06:21:23;22.60;75.30
70762;DHT22;58360;0.000;0.000;2023-06-26T06:23:49;22.70;74.80
70762;DHT22;58360;0.000;0.000;2023-06-26T06:26:15;22.70;74.70
70762;DHT22;58360;0.000;0.000;2023-06-26T06:28:40;22.70;74.90
70762;DHT22;58360;0.000;0.000;2023-06-26T06:31:06;22.60;75.00
70762;DHT22;58360;0.000;0.000;2023-06-26T06:33:32;22.60;76.20
70762;DHT22;58360;0.000;0.000;2023-06-26T06:35:57;22.80;74.70
70762;DHT22;58360;0.000;0.000;2023-06-26T06:38:23;22.80;74.30
70762;DHT22;58360;0.000;0.000;2023-06-26T06:40:49;23.00;74.20
70762;DHT22;58360;0.000;0.000;2023-06-26T06:43:14;23.00;73.20
70762;DHT22;58360;0.000;0.000;2023-06-26T06:45:41;23.10;73.00
70762;DHT22;58360;0.000;0.000;2023-06-26T06:48:06;23.20;73.40
70762;DHT22;58360;0.000;0.000;2023-06-26T06:50:32;23.10;74.10
70762;DHT22;58360;0.000;0.000;2023-06-26T06:52:58;23.20;71.10
70762;DHT22;58360;0.000;0.000;2023-06-26T06:55:23;23.20;71.60
70762;DHT22;58360;0.000;0.000;2023-06-26T06:57:50;23.30;72.40
70762;DHT22;58360;0.000;0.000;2023-06-26T07:00:16;23.60;70.40
70762;DHT22;58360;0.000;0.000;2023-06-26T07:02:45;24.00;69.50
70762;DHT22;58360;0.000;0.000;2023-06-26T07:05:11;24.30;68.00
70762;DHT22;58360;0.000;0.000;2023-06-26T07:07:38;24.50;66.90
70762;DHT22;58360;0.000;0.000;2023-06-26T07:10:09;24.90;67.20
70762;DHT22;58360;0.000;0.000;2023-06-26T07:12:35;25.60;65.40
70762;DHT22;58360;0.000;0.000;2023-06-26T07:15:02;26.60;63.40
70762;DHT22;58360;0.000;0.000;2023-06-26T07:17:30;27.40;59.00
70762;DHT22;58360;0.000;0.000;2023-06-26T07:19:56;28.10;57.40
70762;DHT22;58360;0.000;0.000;2023-06-26T07:22:21;28.50;56.50
70762;DHT22;58360;0.000;0.000;2023-06-26T07:24:47;29.00;53.80
70762;DHT22;58360;0.000;0.000;2023-06-26T07:27:16;29.10;53.00
70762;DHT22;58360;0.000;0.000;2023-06-26T07:29:43;29.40;52.90
70762;DHT22;58360;0.000;0.000;2023-06-26T07:32:09;30.00;51.60
70762;DHT22;58360;0.000;0.000;2023-06-26T07:34:35;30.00;50.10
70762;DHT22;58360;0.000;0.000;2023-06-26T07:37:01;30.60;49.70
70762;DHT22;58360;0.000;0.000;2023-06-26T07:39:26;30.70;48.30
70762;DHT22;58360;0.000;0.000;2023-06-26T07:41:52;30.80;48.50
70762;DHT22;58360;0.000;0.000;2023-06-26T07:44:18;30.90;48.40
70762;DHT22;58360;0.000;0.000;2023-06-26T07:46:44;31.10;46.70
70762;DHT22;58360;0.000;0.000;2023-06-26T07:49:12;31.10;46.80
70762;DHT22;58360;0.000;0.000;2023-06-26T07:51:38;31.00;46.90
70762;DHT22;58360;0.000;0.000;2023-06-26T07:54:03;31.50;46.30
70762;DHT22;58360;0.000;0.000;2023-06-26T07:56:29;31.80;46.40
70762;DHT22;58360;0.000;0.000;2023-06-26T07:58:55;32.40;44.60
70762;DHT22;58360;0.000;0.000;2023-06-26T08:01:23;32.40;46.20
70762;DHT22;58360;0.000;0.000;2023-06-26T08:03:49;33.00;42.10
70762;DHT22;58360;0.000;0.000;2023-06-26T08:06:15;33.00;41.90
70762;DHT22;58360;0.000;0.000;2023-06-26T08:08:40;33.30;41.80
70762;DHT22;58360;0.000;0.000;2023-06-26T08:11:06;33.50;41.20
70762;DHT22;58360;0.000;0.000;2023-06-26T08:13:32;33.30;41.30
70762;DHT22;58360;0.000;0.000;2023-06-26T08:15:57;33.10;40.20
70762;DHT22;58360;0.000;0.000;2023-06-26T08:18:23;33.50;40.80
70762;DHT22;58360;0.000;0.000;2023-06-26T08:20:49;34.00;38.60
70762;DHT22;58360;0.000;0.000;2023-06-26T08:23:14;33.90;39.60
70762;DHT22;58360;0.000;0.000;2023-06-26T08:25:40;33.70;40.20
70762;DHT22;58360;0.000;0.000;2023-06-26T08:28:06;33.90;40.50
70762;DHT22;58360;0.000;0.000;2023-06-26T08:30:32;34.20;39.90
70762;DHT22;58360;0.000;0.000;2023-06-26T08:32:58;35.00;39.90
70762;DHT22;58360;0.000;0.000;2023-06-26T08:35:24;34.50;38.80
70762;DHT22;58360;0.000;0.000;2023-06-26T08:37:49;34.30;39.70
70762;DHT22;58360;0.000;0.000;2023-06-26T08:40:18;34.40;39.20
70762;DHT22;58360;0.000;0.000;2023-06-26T08:42:44;34.40;39.20
70762;DHT22;58360;0.000;0.000;2023-06-26T08:45:10;34.90;39.70
70762;DHT22;58360;0.000;0.000;2023-06-26T08:47:37;35.60;39.20
70762;DHT22;58360;0.000;0.000;2023-06-26T08:50:13;35.90;37.60
70762;DHT22;58360;0.000;0.000;2023-06-26T08:53:04;35.80;38.20
70762;DHT22;58360;0.000;0.000;2023-06-26T08:55:31;36.20;37.80
70762;DHT22;58360;0.000;0.000;2023-06-26T08:57:59;36.20;37.30
70762;DHT22;58360;0.000;0.000;2023-06-26T09:00:25;36.50;35.50
70762;DHT22;58360;0.000;0.000;2023-06-26T09:02:51;36.00;37.80
70762;DHT22;58360;0.000;0.000;2023-06-26T09:05:17;36.10;36.70
70762;DHT22;58360;0.000;0.000;2023-06-26T09:07:44;36.00;36.20
70762;DHT22;58360;0.000;0.000;2023-06-26T09:10:10;36.70;36.00
70762;DHT22;58360;0.000;0.000;2023-06-26T09:12:37;37.70;35.90
70762;DHT22;58360;0.000;0.000;2023-06-26T09:15:04;37.20;36.40
70762;DHT22;58360;0.000;0.000;2023-06-26T09:17:32;37.10;35.30
70762;DHT22;58360;0.000;0.000;2023-06-26T09:19:58;37.20;35.80
70762;DHT22;58360;0.000;0.000;2023-06-26T09:22:24;38.30;34.40
70762;DHT22;58360;0.000;0.000;2023-06-26T09:24:50;38.20;34.90
70762;DHT22;58360;0.000;0.000;2023-06-26T09:27:17;38.50;34.70
70762;DHT22;58360;0.000;0.000;2023-06-26T09:29:45;38.40;33.70
70762;DHT22;58360;0.000;0.000;2023-06-26T09:32:13;38.50;32.90
70762;DHT22;58360;0.000;0.000;2023-06-26T09:34:41;38.00;33.40
70762;DHT22;58360;0.000;0.000;2023-06-26T09:37:08;38.20;33.10
70762;DHT22;58360;0.000;0.000;2023-06-26T09:39:33;38.20;35.40
70762;DHT22;58360;0.000;0.000;2023-06-26T09:41:59;37.30;33.20
70762;DHT22;58360;0.000;0.000;2023-06-26T09:44:27;35.60;35.70
70762;DHT22;58360;0.000;0.000;2023-06-26T09:46:55;34.60;36.90
70762;DHT22;58360;0.000;0.000;2023-06-26T09:49:22;35.20;37.80
70762;DHT22;58360;0.000;0.000;2023-06-26T09:51:49;34.70;36.40
70762;DHT22;58360;0.000;0.000;2023-06-26T09:54:16;33.80;38.10
70762;DHT22;58360;0.000;0.000;2023-06-26T09:56:43;34.80;37.50
70762;DHT22;58360;0.000;0.000;2023-06-26T09:59:09;35.90;35.20
70762;DHT22;58360;0.000;0.000;2023-06-26T10:01:41;35.50;35.70
70762;DHT22;58360;0.000;0.000;2023-06-26T10:04:07;33.60;35.90
70762;DHT22;58360;0.000;0.000;2023-06-26T10:06:46;32.00;36.90
70762;DHT22;58360;0.000;0.000;2023-06-26T10:09:17;31.00;39.60
70762;DHT22;58360;0.000;0.000;2023-06-26T10:12:06;30.20;41.70
70762;DHT22;58360;0.000;0.000;2023-06-26T10:14:36;31.60;42.40
70762;DHT22;58360;0.000;0.000;2023-06-26T10:17:15;33.10;39.10
70762;DHT22;58360;0.000;0.000;2023-06-26T10:19:44;34.70;38.20
70762;DHT22;58360;0.000;0.000;2023-06-26T10:22:12;34.80;35.00
70762;DHT22;58360;0.000;0.000;2023-06-26T10:24:40;35.00;35.20
70762;DHT22;58360;0.000;0.000;2023-06-26T10:27:20;36.10;34.20
70762;DHT22;58360;0.000;0.000;2023-06-26T10:29:49;36.90;36.50
70762;DHT22;58360;0.000;0.000;2023-06-26T10:32:18;37.60;35.10
70762;DHT22;58360;0.000;0.000;2023-06-26T10:34:45;38.10;33.30
70762;DHT22;58360;0.000;0.000;2023-06-26T10:37:12;38.20;34.40
70762;DHT22;58360;0.000;0.000;2023-06-26T10:39:59;38.20;33.70
70762;DHT22;58360;0.000;0.000;2023-06-26T10:42:36;39.10;34.40
70762;DHT22;58360;0.000;0.000;2023-06-26T10:45:16;39.10;33.30
70762;DHT22;58360;0.000;0.000;2023-06-26T10:47:45;39.30;31.40
70762;DHT22;58360;0.000;0.000;2023-06-26T10:55:50;34.90;33.90
70762;DHT22;58360;0.000;0.000;2023-06-26T10:58:28;35.40;35.90
70762;DHT22;58360;0.000;0.000;2023-06-26T11:01:18;35.10;33.70
70762;DHT22;58360;0.000;0.000;2023-06-26T11:06:24;36.10;35.60
70762;DHT22;58360;0.000;0.000;2023-06-26T11:08:51;36.80;35.70
70762;DHT22;58360;0.000;0.000;2023-06-26T11:14:25;38.50;31.20
70762;DHT22;58360;0.000;0.000;2023-06-26T11:16:51;38.50;31.30
70762;DHT22;58360;0.000;0.000;2023-06-26T11:19:18;38.90;32.30
70762;DHT22;58360;0.000;0.000;2023-06-26T11:21:44;39.40;30.40
70762;DHT22;58360;0.000;0.000;2023-06-26T11:24:11;39.60;30.60
70762;DHT22;58360;0.000;0.000;2023-06-26T11:26:42;40.00;32.80
70762;DHT22;58360;0.000;0.000;2023-06-26T11:29:08;39.90;32.00
70762;DHT22;58360;0.000;0.000;2023-06-26T11:31:36;39.70;32.60
70762;DHT22;58360;0.000;0.000;2023-06-26T11:34:07;39.10;31.50
70762;DHT22;58360;0.000;0.000;2023-06-26T11:36:37;38.80;33.10
70762;DHT22;58360;0.000;0.000;2023-06-26T11:39:05;39.30;32.10
70762;DHT22;58360;0.000;0.000;2023-06-26T11:41:36;38.80;32.20
70762;DHT22;58360;0.000;0.000;2023-06-26T11:44:04;39.30;30.30
70762;DHT22;58360;0.000;0.000;2023-06-26T11:46:30;37.60;32.40
70762;DHT22;58360;0.000;0.000;2023-06-26T11:48:56;36.70;33.80
70762;DHT22;58360;0.000;0.000;2023-06-26T11:51:22;37.00;32.50
70762;DHT22;58360;0.000;0.000;2023-06-26T11:53:48;37.80;32.40
70762;DHT22;58360;0.000;0.000;2023-06-26T11:56:15;37.90;33.50
70762;DHT22;58360;0.000;0.000;2023-06-26T11:59:01;37.60;31.90
70762;DHT22;58360;0.000;0.000;2023-06-26T12:01:35;37.70;33.10
70762;DHT22;58360;0.000;0.000;2023-06-26T12:04:06;37.90;33.20
70762;DHT22;58360;0.000;0.000;2023-06-26T12:06:34;37.70;32.80
70762;DHT22;58360;0.000;0.000;2023-06-26T12:09:06;36.60;34.00
70762;DHT22;58360;0.000;0.000;2023-06-26T12:11:34;36.10;35.80
70762;DHT22;58360;0.000;0.000;2023-06-26T12:14:01;36.00;34.20
70762;DHT22;58360;0.000;0.000;2023-06-26T12:16:30;36.20;34.60
70762;DHT22;58360;0.000;0.000;2023-06-26T12:19:03;36.60;34.20
70762;DHT22;58360;0.000;0.000;2023-06-26T12:23:59;37.60;33.00
70762;DHT22;58360;0.000;0.000;2023-06-26T12:26:26;36.90;33.60
70762;DHT22;58360;0.000;0.000;2023-06-26T12:28:52;37.10;34.30
70762;DHT22;58360;0.000;0.000;2023-06-26T12:31:20;37.20;33.50
70762;DHT22;58360;0.000;0.000;2023-06-26T12:33:47;37.20;33.40
70762;DHT22;58360;0.000;0.000;2023-06-26T12:36:13;37.70;34.60
70762;DHT22;58360;0.000;0.000;2023-06-26T12:38:40;38.00;30.90
70762;DHT22;58360;0.000;0.000;2023-06-26T12:41:12;38.10;31.90
70762;DHT22;58360;0.000;0.000;2023-06-26T12:43:39;37.40;33.80
70762;DHT22;58360;0.000;0.000;2023-06-26T12:46:05;37.30;35.00
70762;DHT22;58360;0.000;0.000;2023-06-26T12:48:44;38.00;34.70
70762;DHT22;58360;0.000;0.000;2023-06-26T12:51:12;38.40;34.40
70762;DHT22;58360;0.000;0.000;2023-06-26T12:53:38;38.80;32.00
70762;DHT22;58360;0.000;0.000;2023-06-26T12:56:05;38.90;31.70
70762;DHT22;58360;0.000;0.000;2023-06-26T12:58:32;38.00;33.00
70762;DHT22;58360;0.000;0.000;2023-06-26T13:00:58;37.70;32.40
70762;DHT22;58360;0.000;0.000;2023-06-26T13:03:23;37.90;32.40
70762;DHT22;58360;0.000;0.000;2023-06-26T13:05:49;37.60;33.00
70762;DHT22;58360;0.000;0.000;2023-06-26T13:08:15;37.30;33.50
70762;DHT22;58360;0.000;0.000;2023-06-26T13:10:44;37.30;32.10
70762;DHT22;58360;0.000;0.000;2023-06-26T13:13:13;36.90;33.20
70762;DHT22;58360;0.000;0.000;2023-06-26T13:15:38;36.60;35.50
70762;DHT22;58360;0.000;0.000;2023-06-26T13:18:04;36.70;33.60
70762;DHT22;58360;0.000;0.000;2023-06-26T13:20:30;36.30;32.70
70762;DHT22;58360;0.000;0.000;2023-06-26T13:22:55;36.50;33.50
70762;DHT22;58360;0.000;0.000;2023-06-26T13:25:21;37.10;31.90
70762;DHT22;58360;0.000;0.000;2023-06-26T13:27:48;37.00;32.20
70762;DHT22;58360;0.000;0.000;2023-06-26T13:30:15;36.50;31.50
70762;DHT22;58360;0.000;0.000;2023-06-26T13:32:41;36.10;32.50
70762;DHT22;58360;0.000;0.000;2023-06-26T13:35:07;36.30;31.00
70762;DHT22;58360;0.000;0.000;2023-06-26T13:37:34;36.10;32.70
70762;DHT22;58360;0.000;0.000;2023-06-26T13:40:00;36.00;31.70
70762;DHT22;58360;0.000;0.000;2023-06-26T13:42:27;35.70;34.30
70762;DHT22;58360;0.000;0.000;2023-06-26T13:44:53;35.10;33.20
70762;DHT22;58360;0.000;0.000;2023-06-26T13:47:19;35.00;33.20
70762;DHT22;58360;0.000;0.000;2023-06-26T13:49:44;34.50;32.70
70762;DHT22;58360;0.000;0.000;2023-06-26T13:52:10;34.30;32.50
70762;DHT22;58360;0.000;0.000;2023-06-26T13:54:36;34.40;33.00
70762;DHT22;58360;0.000;0.000;2023-06-26T13:57:05;34.40;34.10
70762;DHT22;58360;0.000;0.000;2023-06-26T13:59:31;34.50;34.00
70762;DHT22;58360;0.000;0.000;2023-06-26T14:01:57;34.00;34.50
70762;DHT22;58360;0.000;0.000;2023-06-26T14:04:23;33.50;36.10
70762;DHT22;58360;0.000;0.000;2023-06-26T14:06:48;33.00;36.90
70762;DHT22;58360;0.000;0.000;2023-06-26T14:09:14;32.70;38.00
70762;DHT22;58360;0.000;0.000;2023-06-26T14:11:41;32.20;37.90
70762;DHT22;58360;0.000;0.000;2023-06-26T14:14:06;31.30;36.70
70762;DHT22;58360;0.000;0.000;2023-06-26T14:16:32;31.10;39.10
70762;DHT22;58360;0.000;0.000;2023-06-26T14:18:58;30.70;39.40
70762;DHT22;58360;0.000;0.000;2023-06-26T14:21:27;30.60;39.60
70762;DHT22;58360;0.000;0.000;2023-06-26T14:24:00;30.60;40.00
70762;DHT22;58360;0.000;0.000;2023-06-26T14:26:27;30.50;41.40
70762;DHT22;58360;0.000;0.000;2023-06-26T14:28:55;30.50;40.60
70762;DHT22;58360;0.000;0.000;2023-06-26T14:31:20;30.70;40.10
70762;DHT22;58360;0.000;0.000;2023-06-26T14:33:46;30.40;41.50
70762;DHT22;58360;0.000;0.000;2023-06-26T14:36:12;30.80;40.80
70762;DHT22;58360;0.000;0.000;2023-06-26T14:38:37;30.90;41.40
70762;DHT22;58360;0.000;0.000;2023-06-26T14:41:03;31.10;41.50
70762;DHT22;58360;0.000;0.000;2023-06-26T14:43:29;31.20;41.20
70762;DHT22;58360;0.000;0.000;2023-06-26T14:45:54;31.30;40.00
70762;DHT22;58360;0.000;0.000;2023-06-26T14:48:20;31.20;39.60
70762;DHT22;58360;0.000;0.000;2023-06-26T14:50:46;30.50;40.60
70762;DHT22;58360;0.000;0.000;2023-06-26T14:53:11;30.70;40.40
70762;DHT22;58360;0.000;0.000;2023-06-26T14:55:37;30.40;40.30
70762;DHT22;58360;0.000;0.000;2023-06-26T14:58:03;30.50;41.00
70762;DHT22;58360;0.000;0.000;2023-06-26T15:00:28;30.60;40.90
70762;DHT22;58360;0.000;0.000;2023-06-26T15:02:54;30.60;40.70
70762;DHT22;58360;0.000;0.000;2023-06-26T15:05:20;30.80;41.40
70762;DHT22;58360;0.000;0.000;2023-06-26T15:07:47;30.80;39.90
70762;DHT22;58360;0.000;0.000;2023-06-26T15:10:13;30.50;40.40
70762;DHT22;58360;0.000;0.000;2023-06-26T15:12:38;30.60;41.50
70762;DHT22;58360;0.000;0.000;2023-06-26T15:15:04;30.80;41.30
70762;DHT22;58360;0.000;0.000;2023-06-26T15:17:33;30.80;41.30
70762;DHT22;58360;0.000;0.000;2023-06-26T15:19:59;30.10;40.10
70762;DHT22;58360;0.000;0.000;2023-06-26T15:22:26;30.00;40.80
70762;DHT22;58360;0.000;0.000;2023-06-26T15:24:52;29.80;40.90
70762;DHT22;58360;0.000;0.000;2023-06-26T15:27:18;29.80;41.10
70762;DHT22;58360;0.000;0.000;2023-06-26T15:29:44;29.80;41.40
70762;DHT22;58360;0.000;0.000;2023-06-26T15:32:09;30.10;41.50
70762;DHT22;58360;0.000;0.000;2023-06-26T15:34:35;30.50;40.40
70762;DHT22;58360;0.000;0.000;2023-06-26T15:37:01;30.90;39.50
70762;DHT22;58360;0.000;0.000;2023-06-26T15:39:26;30.60;40.60
70762;DHT22;58360;0.000;0.000;2023-06-26T15:41:52;30.30;40.60
70762;DHT22;58360;0.000;0.000;2023-06-26T15:44:19;30.00;40.00
70762;DHT22;58360;0.000;0.000;2023-06-26T15:46:45;29.60;39.40
70762;DHT22;58360;0.000;0.000;2023-06-26T15:49:11;29.20;40.20
70762;DHT22;58360;0.000;0.000;2023-06-26T15:51:37;29.00;39.80
70762;DHT22;58360;0.000;0.000;2023-06-26T15:54:06;29.00;39.10
70762;DHT22;58360;0.000;0.000;2023-06-26T15:56:31;28.90;40.80
70762;DHT22;58360;0.000;0.000;2023-06-26T15:58:57;28.90;39.70
70762;DHT22;58360;0.000;0.000;2023-06-26T16:01:23;28.90;40.10
70762;DHT22;58360;0.000;0.000;2023-06-26T16:03:50;28.90;40.10